sensor_id;sensor_type;location;lat;lon;timestamp;P1;durP1;ratioP1;P2;durP2;ratioP2
70102;SDS011;57470;50.034;15.256;2023-06-10T00:02:20;3.17;;;0.87;;
70102;SDS011;57470;50.034;15.256;2023-06-10T00:04:45;3.17;;;1.20;;
70102;SDS011;57470;50.034;15.256;2023-06-10T00:07:11;3.63;;;1.30;;
70102;SDS011;57470;50.034;15.256;2023-06-10T00:09:37;2.17;;;0.70;;
70102;SDS011;57470;50.034;15.256;2023-06-10T00:12:04;3.00;;;0.73;;
70102;SDS011;57470;50.034;15.256;2023-06-10T00:14:30;2.67;;;0.70;;
70102;SDS011;57470;50.034;15.256;2023-06-10T00:16:55;2.17;;;0.60;;
70102;SDS011;57470;50.034;15.256;2023-06-10T00:19:22;2.58;;;0.80;;
70102;SDS011;57470;50.034;15.256;2023-06-10T00:21:50;3.13;;;1.25;;
70102;SDS011;57470;50.034;15.256;2023-06-10T00:24:17;3.67;;;1.05;;
70102;SDS011;57470;50.034;15.256;2023-06-10T00:26:43;5.20;;;1.40;;
70102;SDS011;57470;50.034;15.256;2023-06-10T00:29:08;3.22;;;1.38;;
70102;SDS011;57470;50.034;15.256;2023-06-10T00:31:34;5.00;;;1.63;;
70102;SDS011;57470;50.034;15.256;2023-06-10T00:34:01;3.63;;;1.38;;
70102;SDS011;57470;50.034;15.256;2023-06-10T00:36:27;3.23;;;1.17;;
70102;SDS011;57470;50.034;15.256;2023-06-10T00:38:52;3.47;;;1.00;;
70102;SDS011;57470;50.034;15.256;2023-06-10T00:41:18;3.40;;;1.57;;
70102;SDS011;57470;50.034;15.256;2023-06-10T00:43:43;3.30;;;1.20;;
70102;SDS011;57470;50.034;15.256;2023-06-10T00:46:09;3.72;;;1.02;;
70102;SDS011;57470;50.034;15.256;2023-06-10T00:48:36;4.27;;;1.60;;
70102;SDS011;57470;50.034;15.256;2023-06-10T00:51:03;3.47;;;1.55;;
70102;SDS011;57470;50.034;15.256;2023-06-10T00:53:30;2.65;;;0.80;;
70102;SDS011;57470;50.034;15.256;2023-06-10T00:55:56;3.00;;;0.77;;
70102;SDS011;57470;50.034;15.256;2023-06-10T00:58:22;5.30;;;1.97;;
70102;SDS011;57470;50.034;15.256;2023-06-10T01:00:48;4.20;;;1.00;;
70102;SDS011;57470;50.034;15.256;2023-06-10T01:03:14;3.00;;;1.20;;
70102;SDS011;57470;50.034;15.256;2023-06-10T01:05:42;5.97;;;2.08;;
70102;SDS011;57470;50.034;15.256;2023-06-10T01:10:45;3.67;;;1.67;;
70102;SDS011;57470;50.034;15.256;2023-06-10T01:13:16;3.28;;;1.02;;
70102;SDS011;57470;50.034;15.256;2023-06-10T01:15:43;2.83;;;0.90;;
70102;SDS011;57470;50.034;15.256;2023-06-10T01:18:09;3.77;;;1.40;;
70102;SDS011;57470;50.034;15.256;2023-06-10T01:20:40;4.90;;;1.85;;
70102;SDS011;57470;50.034;15.256;2023-06-10T01:23:08;2.97;;;1.17;;
70102;SDS011;57470;50.034;15.256;2023-06-10T01:25:42;3.60;;;1.55;;
70102;SDS011;57470;50.034;15.256;2023-06-10T01:28:14;2.97;;;0.87;;
70102;SDS011;57470;50.034;15.256;2023-06-10T01:30:53;3.25;;;1.13;;
70102;SDS011;57470;50.034;15.256;2023-06-10T01:33:33;3.50;;;1.50;;
70102;SDS011;57470;50.034;15.256;2023-06-10T01:36:03;3.30;;;1.17;;
70102;SDS011;57470;50.034;15.256;2023-06-10T01:38:30;4.63;;;1.77;;
70102;SDS011;57470;50.034;15.256;2023-06-10T01:41:01;4.40;;;1.30;;
70102;SDS011;57470;50.034;15.256;2023-06-10T01:43:28;2.65;;;0.80;;
70102;SDS011;57470;50.034;15.256;2023-06-10T01:45:53;4.13;;;1.93;;
70102;SDS011;57470;50.034;15.256;2023-06-10T01:48:18;3.07;;;0.70;;
70102;SDS011;57470;50.034;15.256;2023-06-10T01:50:44;2.50;;;0.70;;
70102;SDS011;57470;50.034;15.256;2023-06-10T01:53:09;2.93;;;1.13;;
70102;SDS011;57470;50.034;15.256;2023-06-10T01:55:35;2.73;;;0.80;;
70102;SDS011;57470;50.034;15.256;2023-06-10T01:58:01;2.80;;;0.90;;
70102;SDS011;57470;50.034;15.256;2023-06-10T02:00:27;3.03;;;0.80;;
70102;SDS011;57470;50.034;15.256;2023-06-10T02:02:53;2.30;;;0.80;;
70102;SDS011;57470;50.034;15.256;2023-06-10T02:05:18;4.40;;;1.60;;
70102;SDS011;57470;50.034;15.256;2023-06-10T02:07:43;2.90;;;1.00;;
70102;SDS011;57470;50.034;15.256;2023-06-10T02:10:09;4.17;;;1.00;;
70102;SDS011;57470;50.034;15.256;2023-06-10T02:12:36;3.47;;;1.20;;
70102;SDS011;57470;50.034;15.256;2023-06-10T02:15:03;3.75;;;1.10;;
70102;SDS011;57470;50.034;15.256;2023-06-10T02:17:30;2.13;;;0.52;;
70102;SDS011;57470;50.034;15.256;2023-06-10T02:19:58;3.05;;;1.05;;
70102;SDS011;57470;50.034;15.256;2023-06-10T02:22:25;4.33;;;1.43;;
70102;SDS011;57470;50.034;15.256;2023-06-10T02:24:52;3.13;;;1.30;;
70102;SDS011;57470;50.034;15.256;2023-06-10T02:27:17;2.42;;;0.60;;
70102;SDS011;57470;50.034;15.256;2023-06-10T02:29:45;2.67;;;0.80;;
70102;SDS011;57470;50.034;15.256;2023-06-10T02:32:12;2.70;;;0.80;;
70102;SDS011;57470;50.034;15.256;2023-06-10T02:34:39;3.00;;;1.20;;
70102;SDS011;57470;50.034;15.256;2023-06-10T02:37:08;3.03;;;1.02;;
70102;SDS011;57470;50.034;15.256;2023-06-10T02:39:35;3.58;;;1.42;;
70102;SDS011;57470;50.034;15.256;2023-06-10T02:42:02;3.47;;;1.30;;
70102;SDS011;57470;50.034;15.256;2023-06-10T02:44:31;2.78;;;1.02;;
70102;SDS011;57470;50.034;15.256;2023-06-10T02:46:57;2.83;;;0.87;;
70102;SDS011;57470;50.034;15.256;2023-06-10T02:49:24;2.00;;;0.47;;
70102;SDS011;57470;50.034;15.256;2023-06-10T02:51:54;2.58;;;0.52;;
70102;SDS011;57470;50.034;15.256;2023-06-10T02:54:22;2.50;;;0.68;;
70102;SDS011;57470;50.034;15.256;2023-06-10T02:56:51;2.95;;;1.05;;
70102;SDS011;57470;50.034;15.256;2023-06-10T02:59:18;2.43;;;0.63;;
70102;SDS011;57470;50.034;15.256;2023-06-10T03:01:45;4.20;;;1.63;;
70102;SDS011;57470;50.034;15.256;2023-06-10T03:04:11;3.05;;;1.05;;
70102;SDS011;57470;50.034;15.256;2023-06-10T03:06:39;3.40;;;1.20;;
70102;SDS011;57470;50.034;15.256;2023-06-10T03:09:07;3.05;;;1.02;;
70102;SDS011;57470;50.034;15.256;2023-06-10T03:11:33;4.73;;;1.90;;
70102;SDS011;57470;50.034;15.256;2023-06-10T03:13:58;3.20;;;1.17;;
70102;SDS011;57470;50.034;15.256;2023-06-10T03:16:24;4.13;;;0.93;;
70102;SDS011;57470;50.034;15.256;2023-06-10T03:18:52;2.20;;;0.80;;
70102;SDS011;57470;50.034;15.256;2023-06-10T03:21:18;2.70;;;0.82;;
70102;SDS011;57470;50.034;15.256;2023-06-10T03:23:43;2.73;;;0.90;;
70102;SDS011;57470;50.034;15.256;2023-06-10T03:26:10;4.60;;;1.03;;
70102;SDS011;57470;50.034;15.256;2023-06-10T03:28:37;3.40;;;1.27;;
70102;SDS011;57470;50.034;15.256;2023-06-10T03:31:03;3.03;;;1.13;;
70102;SDS011;57470;50.034;15.256;2023-06-10T03:33:28;2.10;;;0.40;;
70102;SDS011;57470;50.034;15.256;2023-06-10T03:35:53;2.67;;;0.80;;
70102;SDS011;57470;50.034;15.256;2023-06-10T03:38:19;4.03;;;1.30;;
70102;SDS011;57470;50.034;15.256;2023-06-10T03:40:44;3.23;;;1.07;;
70102;SDS011;57470;50.034;15.256;2023-06-10T03:43:10;3.05;;;0.88;;
70102;SDS011;57470;50.034;15.256;2023-06-10T03:45:35;2.00;;;0.40;;
70102;SDS011;57470;50.034;15.256;2023-06-10T03:48:01;3.63;;;0.80;;
70102;SDS011;57470;50.034;15.256;2023-06-10T03:50:28;3.83;;;1.33;;
70102;SDS011;57470;50.034;15.256;2023-06-10T03:52:54;3.63;;;0.93;;
70102;SDS011;57470;50.034;15.256;2023-06-10T03:55:19;4.47;;;1.00;;
70102;SDS011;57470;50.034;15.256;2023-06-10T03:57:46;2.03;;;0.57;;
70102;SDS011;57470;50.034;15.256;2023-06-10T04:00:13;3.53;;;1.20;;
70102;SDS011;57470;50.034;15.256;2023-06-10T04:02:40;3.77;;;1.40;;
70102;SDS011;57470;50.034;15.256;2023-06-10T04:05:14;5.25;;;1.95;;
70102;SDS011;57470;50.034;15.256;2023-06-10T04:07:40;3.45;;;0.90;;
70102;SDS011;57470;50.034;15.256;2023-06-10T04:10:07;3.80;;;1.23;;
70102;SDS011;57470;50.034;15.256;2023-06-10T04:12:33;3.90;;;1.65;;
70102;SDS011;57470;50.034;15.256;2023-06-10T04:14:59;2.53;;;0.83;;
70102;SDS011;57470;50.034;15.256;2023-06-10T04:17:25;2.97;;;0.75;;
70102;SDS011;57470;50.034;15.256;2023-06-10T04:19:51;4.23;;;1.20;;
70102;SDS011;57470;50.034;15.256;2023-06-10T04:22:17;3.17;;;1.00;;
70102;SDS011;57470;50.034;15.256;2023-06-10T04:24:43;2.85;;;1.02;;
70102;SDS011;57470;50.034;15.256;2023-06-10T04:27:08;4.20;;;2.27;;
70102;SDS011;57470;50.034;15.256;2023-06-10T04:29:33;3.53;;;1.40;;
70102;SDS011;57470;50.034;15.256;2023-06-10T04:31:59;3.33;;;1.42;;
70102;SDS011;57470;50.034;15.256;2023-06-10T04:34:27;3.47;;;1.77;;
70102;SDS011;57470;50.034;15.256;2023-06-10T04:36:53;4.18;;;1.27;;
70102;SDS011;57470;50.034;15.256;2023-06-10T04:39:18;3.88;;;1.05;;
70102;SDS011;57470;50.034;15.256;2023-06-10T04:41:45;3.40;;;1.40;;
70102;SDS011;57470;50.034;15.256;2023-06-10T04:44:11;3.92;;;1.05;;
70102;SDS011;57470;50.034;15.256;2023-06-10T04:46:36;3.58;;;1.42;;
70102;SDS011;57470;50.034;15.256;2023-06-10T04:49:02;3.30;;;0.80;;
70102;SDS011;57470;50.034;15.256;2023-06-10T04:51:27;4.67;;;2.03;;
70102;SDS011;57470;50.034;15.256;2023-06-10T04:53:53;4.13;;;1.77;;
70102;SDS011;57470;50.034;15.256;2023-06-10T04:56:18;3.37;;;1.07;;
70102;SDS011;57470;50.034;15.256;2023-06-10T04:58:45;3.13;;;0.68;;
70102;SDS011;57470;50.034;15.256;2023-06-10T05:01:10;3.20;;;0.80;;
70102;SDS011;57470;50.034;15.256;2023-06-10T05:03:36;3.20;;;1.20;;
70102;SDS011;57470;50.034;15.256;2023-06-10T05:06:01;3.70;;;1.43;;
70102;SDS011;57470;50.034;15.256;2023-06-10T05:08:26;2.87;;;0.87;;
70102;SDS011;57470;50.034;15.256;2023-06-10T05:10:52;3.40;;;1.20;;
70102;SDS011;57470;50.034;15.256;2023-06-10T05:13:17;4.40;;;1.80;;
70102;SDS011;57470;50.034;15.256;2023-06-10T05:15:43;2.93;;;0.90;;
70102;SDS011;57470;50.034;15.256;2023-06-10T05:18:09;3.58;;;1.13;;
70102;SDS011;57470;50.034;15.256;2023-06-10T05:20:37;3.17;;;1.15;;
70102;SDS011;57470;50.034;15.256;2023-06-10T05:23:03;3.60;;;1.33;;
70102;SDS011;57470;50.034;15.256;2023-06-10T05:25:30;5.70;;;1.83;;
70102;SDS011;57470;50.034;15.256;2023-06-10T05:27:56;5.10;;;1.10;;
70102;SDS011;57470;50.034;15.256;2023-06-10T05:30:21;2.97;;;0.93;;
70102;SDS011;57470;50.034;15.256;2023-06-10T05:32:47;3.03;;;1.13;;
70102;SDS011;57470;50.034;15.256;2023-06-10T05:35:13;4.65;;;1.05;;
70102;SDS011;57470;50.034;15.256;2023-06-10T05:37:38;4.37;;;1.53;;
70102;SDS011;57470;50.034;15.256;2023-06-10T05:40:04;4.23;;;1.63;;
70102;SDS011;57470;50.034;15.256;2023-06-10T05:42:30;4.38;;;1.20;;
70102;SDS011;57470;50.034;15.256;2023-06-10T05:44:55;3.60;;;1.53;;
70102;SDS011;57470;50.034;15.256;2023-06-10T05:47:20;3.10;;;0.87;;
70102;SDS011;57470;50.034;15.256;2023-06-10T05:49:46;3.80;;;1.60;;
70102;SDS011;57470;50.034;15.256;2023-06-10T05:52:13;3.88;;;1.75;;
70102;SDS011;57470;50.034;15.256;2023-06-10T05:54:38;3.87;;;1.53;;
70102;SDS011;57470;50.034;15.256;2023-06-10T05:57:04;5.13;;;2.43;;
70102;SDS011;57470;50.034;15.256;2023-06-10T05:59:30;4.65;;;1.73;;
70102;SDS011;57470;50.034;15.256;2023-06-10T06:01:56;5.30;;;2.10;;
70102;SDS011;57470;50.034;15.256;2023-06-10T06:04:21;2.97;;;1.00;;
70102;SDS011;57470;50.034;15.256;2023-06-10T06:06:47;3.80;;;1.20;;
70102;SDS011;57470;50.034;15.256;2023-06-10T06:09:12;3.77;;;1.30;;
70102;SDS011;57470;50.034;15.256;2023-06-10T06:11:37;4.27;;;1.67;;
70102;SDS011;57470;50.034;15.256;2023-06-10T06:14:03;3.03;;;0.87;;
70102;SDS011;57470;50.034;15.256;2023-06-10T06:16:28;3.95;;;1.35;;
70102;SDS011;57470;50.034;15.256;2023-06-10T06:18:54;3.90;;;1.50;;
70102;SDS011;57470;50.034;15.256;2023-06-10T06:21:22;3.07;;;1.20;;
70102;SDS011;57470;50.034;15.256;2023-06-10T06:23:47;2.90;;;1.00;;
70102;SDS011;57470;50.034;15.256;2023-06-10T06:26:13;5.07;;;1.90;;
70102;SDS011;57470;50.034;15.256;2023-06-10T06:28:38;3.30;;;1.43;;
70102;SDS011;57470;50.034;15.256;2023-06-10T06:31:03;3.10;;;0.97;;
70102;SDS011;57470;50.034;15.256;2023-06-10T06:33:29;3.13;;;1.17;;
70102;SDS011;57470;50.034;15.256;2023-06-10T06:35:55;3.57;;;1.37;;
70102;SDS011;57470;50.034;15.256;2023-06-10T06:38:20;2.43;;;0.67;;
70102;SDS011;57470;50.034;15.256;2023-06-10T06:40:45;2.43;;;0.87;;
70102;SDS011;57470;50.034;15.256;2023-06-10T06:43:11;3.83;;;1.63;;
70102;SDS011;57470;50.034;15.256;2023-06-10T06:45:36;4.43;;;1.05;;
70102;SDS011;57470;50.034;15.256;2023-06-10T06:48:02;3.63;;;0.87;;
70102;SDS011;57470;50.034;15.256;2023-06-10T06:50:27;3.30;;;1.20;;
70102;SDS011;57470;50.034;15.256;2023-06-10T06:52:53;3.97;;;1.40;;
70102;SDS011;57470;50.034;15.256;2023-06-10T06:55:18;2.90;;;1.03;;
70102;SDS011;57470;50.034;15.256;2023-06-10T06:57:43;2.65;;;0.80;;
70102;SDS011;57470;50.034;15.256;2023-06-10T07:00:09;3.43;;;1.37;;
70102;SDS011;57470;50.034;15.256;2023-06-10T07:02:35;2.72;;;1.08;;
70102;SDS011;57470;50.034;15.256;2023-06-10T07:05:00;2.83;;;1.07;;
70102;SDS011;57470;50.034;15.256;2023-06-10T07:07:26;5.03;;;2.13;;
70102;SDS011;57470;50.034;15.256;2023-06-10T07:09:52;4.57;;;1.23;;
70102;SDS011;57470;50.034;15.256;2023-06-10T07:12:17;2.67;;;0.83;;
70102;SDS011;57470;50.034;15.256;2023-06-10T07:14:44;2.90;;;1.08;;
70102;SDS011;57470;50.034;15.256;2023-06-10T07:17:09;3.28;;;1.20;;
70102;SDS011;57470;50.034;15.256;2023-06-10T07:19:35;6.77;;;1.73;;
70102;SDS011;57470;50.034;15.256;2023-06-10T07:22:00;3.33;;;1.10;;
70102;SDS011;57470;50.034;15.256;2023-06-10T07:24:25;4.47;;;2.03;;
70102;SDS011;57470;50.034;15.256;2023-06-10T07:26:51;5.33;;;2.40;;
70102;SDS011;57470;50.034;15.256;2023-06-10T07:29:16;3.33;;;0.88;;
70102;SDS011;57470;50.034;15.256;2023-06-10T07:31:42;3.80;;;1.47;;
70102;SDS011;57470;50.034;15.256;2023-06-10T07:34:07;5.00;;;1.80;;
70102;SDS011;57470;50.034;15.256;2023-06-10T07:36:33;4.97;;;1.90;;
70102;SDS011;57470;50.034;15.256;2023-06-10T07:38:58;2.50;;;0.63;;
70102;SDS011;57470;50.034;15.256;2023-06-10T07:41:23;5.00;;;1.60;;
70102;SDS011;57470;50.034;15.256;2023-06-10T07:43:52;3.47;;;1.35;;
70102;SDS011;57470;50.034;15.256;2023-06-10T07:46:23;4.35;;;2.00;;
70102;SDS011;57470;50.034;15.256;2023-06-10T07:48:48;4.47;;;1.47;;
70102;SDS011;57470;50.034;15.256;2023-06-10T07:51:14;4.30;;;2.17;;
70102;SDS011;57470;50.034;15.256;2023-06-10T07:53:41;4.63;;;1.85;;
70102;SDS011;57470;50.034;15.256;2023-06-10T07:56:06;4.40;;;2.00;;
70102;SDS011;57470;50.034;15.256;2023-06-10T07:58:32;3.67;;;1.57;;
70102;SDS011;57470;50.034;15.256;2023-06-10T08:00:57;3.20;;;1.13;;
70102;SDS011;57470;50.034;15.256;2023-06-10T08:03:22;4.30;;;2.00;;
70102;SDS011;57470;50.034;15.256;2023-06-10T08:05:48;3.10;;;1.23;;
70102;SDS011;57470;50.034;15.256;2023-06-10T08:08:13;4.33;;;1.73;;
70102;SDS011;57470;50.034;15.256;2023-06-10T08:10:38;4.87;;;1.83;;
70102;SDS011;57470;50.034;15.256;2023-06-10T08:13:04;5.00;;;1.90;;
70102;SDS011;57470;50.034;15.256;2023-06-10T08:15:29;3.70;;;1.33;;
70102;SDS011;57470;50.034;15.256;2023-06-10T08:17:55;3.72;;;1.33;;
70102;SDS011;57470;50.034;15.256;2023-06-10T08:20:21;3.90;;;1.27;;
70102;SDS011;57470;50.034;15.256;2023-06-10T08:22:47;3.42;;;1.33;;
70102;SDS011;57470;50.034;15.256;2023-06-10T08:25:12;4.73;;;1.57;;
70102;SDS011;57470;50.034;15.256;2023-06-10T08:27:37;4.80;;;1.23;;
70102;SDS011;57470;50.034;15.256;2023-06-10T08:30:03;4.10;;;1.97;;
70102;SDS011;57470;50.034;15.256;2023-06-10T08:32:29;4.70;;;1.50;;
70102;SDS011;57470;50.034;15.256;2023-06-10T08:34:55;3.78;;;1.60;;
70102;SDS011;57470;50.034;15.256;2023-06-10T08:37:20;5.63;;;2.80;;
70102;SDS011;57470;50.034;15.256;2023-06-10T08:39:46;5.00;;;2.07;;
70102;SDS011;57470;50.034;15.256;2023-06-10T08:42:17;5.63;;;1.07;;
70102;SDS011;57470;50.034;15.256;2023-06-10T08:44:49;4.05;;;1.25;;
70102;SDS011;57470;50.034;15.256;2023-06-10T08:47:18;4.57;;;1.50;;
70102;SDS011;57470;50.034;15.256;2023-06-10T08:49:46;4.70;;;1.95;;
70102;SDS011;57470;50.034;15.256;2023-06-10T08:52:16;4.68;;;1.23;;
70102;SDS011;57470;50.034;15.256;2023-06-10T08:57:27;4.72;;;2.15;;
70102;SDS011;57470;50.034;15.256;2023-06-10T08:59:55;4.07;;;1.70;;
70102;SDS011;57470;50.034;15.256;2023-06-10T09:02:22;3.35;;;1.30;;
70102;SDS011;57470;50.034;15.256;2023-06-10T09:04:48;3.70;;;0.85;;
70102;SDS011;57470;50.034;15.256;2023-06-10T09:07:17;4.23;;;1.07;;
70102;SDS011;57470;50.034;15.256;2023-06-10T09:09:44;4.07;;;1.63;;
70102;SDS011;57470;50.034;15.256;2023-06-10T09:12:10;5.00;;;2.13;;
70102;SDS011;57470;50.034;15.256;2023-06-10T09:14:39;4.10;;;1.13;;
70102;SDS011;57470;50.034;15.256;2023-06-10T09:17:19;3.60;;;1.60;;
70102;SDS011;57470;50.034;15.256;2023-06-10T09:19:45;4.47;;;1.53;;
70102;SDS011;57470;50.034;15.256;2023-06-10T09:22:11;3.90;;;1.10;;
70102;SDS011;57470;50.034;15.256;2023-06-10T09:24:37;6.73;;;1.83;;
70102;SDS011;57470;50.034;15.256;2023-06-10T09:27:04;5.30;;;2.47;;
70102;SDS011;57470;50.034;15.256;2023-06-10T09:29:31;4.00;;;1.58;;
70102;SDS011;57470;50.034;15.256;2023-06-10T09:32:09;5.33;;;1.47;;
70102;SDS011;57470;50.034;15.256;2023-06-10T09:34:35;5.90;;;1.95;;
70102;SDS011;57470;50.034;15.256;2023-06-10T09:37:01;4.57;;;2.17;;
70102;SDS011;57470;50.034;15.256;2023-06-10T09:39:27;4.15;;;1.65;;
70102;SDS011;57470;50.034;15.256;2023-06-10T09:41:52;6.13;;;3.00;;
70102;SDS011;57470;50.034;15.256;2023-06-10T09:44:18;5.00;;;2.27;;
70102;SDS011;57470;50.034;15.256;2023-06-10T09:46:48;7.03;;;2.53;;
70102;SDS011;57470;50.034;15.256;2023-06-10T09:49:15;4.78;;;1.85;;
70102;SDS011;57470;50.034;15.256;2023-06-10T09:51:48;4.15;;;1.77;;
70102;SDS011;57470;50.034;15.256;2023-06-10T09:54:17;3.97;;;1.30;;
70102;SDS011;57470;50.034;15.256;2023-06-10T09:56:43;4.45;;;2.00;;
70102;SDS011;57470;50.034;15.256;2023-06-10T09:59:12;3.10;;;1.13;;
70102;SDS011;57470;50.034;15.256;2023-06-10T10:01:37;4.27;;;1.87;;
70102;SDS011;57470;50.034;15.256;2023-06-10T10:04:02;4.30;;;2.10;;
70102;SDS011;57470;50.034;15.256;2023-06-10T10:06:29;6.07;;;1.67;;
70102;SDS011;57470;50.034;15.256;2023-06-10T10:08:55;4.70;;;1.60;;
70102;SDS011;57470;50.034;15.256;2023-06-10T10:11:21;4.88;;;2.45;;
70102;SDS011;57470;50.034;15.256;2023-06-10T10:13:48;3.57;;;1.33;;
70102;SDS011;57470;50.034;15.256;2023-06-10T10:16:37;4.13;;;1.88;;
70102;SDS011;57470;50.034;15.256;2023-06-10T10:19:13;5.55;;;2.58;;
70102;SDS011;57470;50.034;15.256;2023-06-10T10:22:29;4.00;;;1.45;;
70102;SDS011;57470;50.034;15.256;2023-06-10T10:24:36;4.18;;;1.77;;
70102;SDS011;57470;50.034;15.256;2023-06-10T10:27:07;4.53;;;1.70;;
70102;SDS011;57470;50.034;15.256;2023-06-10T10:29:39;4.93;;;2.13;;
70102;SDS011;57470;50.034;15.256;2023-06-10T10:32:06;5.22;;;2.53;;
70102;SDS011;57470;50.034;15.256;2023-06-10T10:37:02;5.82;;;2.97;;
70102;SDS011;57470;50.034;15.256;2023-06-10T10:39:28;3.00;;;1.00;;
70102;SDS011;57470;50.034;15.256;2023-06-10T10:41:55;3.75;;;1.40;;
70102;SDS011;57470;50.034;15.256;2023-06-10T10:44:21;5.00;;;1.38;;
70102;SDS011;57470;50.034;15.256;2023-06-10T10:46:49;3.30;;;1.23;;
70102;SDS011;57470;50.034;15.256;2023-06-10T10:49:16;4.47;;;1.40;;
70102;SDS011;57470;50.034;15.256;2023-06-10T10:51:58;4.03;;;1.60;;
70102;SDS011;57470;50.034;15.256;2023-06-10T10:54:36;3.42;;;1.10;;
70102;SDS011;57470;50.034;15.256;2023-06-10T10:57:15;5.88;;;2.13;;
70102;SDS011;57470;50.034;15.256;2023-06-10T10:59:45;4.13;;;1.83;;
70102;SDS011;57470;50.034;15.256;2023-06-10T11:02:33;4.47;;;1.98;;
70102;SDS011;57470;50.034;15.256;2023-06-10T11:05:08;4.70;;;1.43;;
70102;SDS011;57470;50.034;15.256;2023-06-10T11:07:34;8.90;;;3.67;;
70102;SDS011;57470;50.034;15.256;2023-06-10T11:10:02;6.18;;;3.13;;
70102;SDS011;57470;50.034;15.256;2023-06-10T11:12:41;361.95;;;162.85;;
70102;SDS011;57470;50.034;15.256;2023-06-10T11:15:10;381.23;;;166.88;;
70102;SDS011;57470;50.034;15.256;2023-06-10T11:23:30;298.75;;;135.30;;
70102;SDS011;57470;50.034;15.256;2023-06-10T11:26:15;259.45;;;117.60;;
70102;SDS011;57470;50.034;15.256;2023-06-10T11:31:27;259.37;;;114.23;;
70102;SDS011;57470;50.034;15.256;2023-06-10T11:34:00;102.38;;;44.10;;
70102;SDS011;57470;50.034;15.256;2023-06-10T11:36:28;4.30;;;1.67;;
70102;SDS011;57470;50.034;15.256;2023-06-10T11:38:57;336.85;;;143.70;;
70102;SDS011;57470;50.034;15.256;2023-06-10T11:41:24;650.40;;;268.75;;
70102;SDS011;57470;50.034;15.256;2023-06-10T11:43:51;25.20;;;7.70;;
70102;SDS011;57470;50.034;15.256;2023-06-10T11:46:17;4.73;;;1.90;;
70102;SDS011;57470;50.034;15.256;2023-06-10T11:48:53;5.50;;;1.88;;
70102;SDS011;57470;50.034;15.256;2023-06-10T11:51:22;8.07;;;3.47;;
70102;SDS011;57470;50.034;15.256;2023-06-10T11:53:50;4.60;;;1.77;;
70102;SDS011;57470;50.034;15.256;2023-06-10T11:56:20;4.30;;;1.90;;
70102;SDS011;57470;50.034;15.256;2023-06-10T11:58:49;5.78;;;1.90;;
70102;SDS011;57470;50.034;15.256;2023-06-10T12:01:21;4.28;;;1.85;;
70102;SDS011;57470;50.034;15.256;2023-06-10T12:03:47;5.38;;;2.33;;
70102;SDS011;57470;50.034;15.256;2023-06-10T12:06:21;5.57;;;1.65;;
70102;SDS011;57470;50.034;15.256;2023-06-10T12:08:46;4.20;;;1.90;;
70102;SDS011;57470;50.034;15.256;2023-06-10T12:11:11;5.53;;;1.93;;
70102;SDS011;57470;50.034;15.256;2023-06-10T12:13:37;4.07;;;1.70;;
70102;SDS011;57470;50.034;15.256;2023-06-10T12:16:13;4.07;;;1.60;;
70102;SDS011;57470;50.034;15.256;2023-06-10T12:18:38;4.60;;;1.87;;
70102;SDS011;57470;50.034;15.256;2023-06-10T12:21:14;4.60;;;2.10;;
70102;SDS011;57470;50.034;15.256;2023-06-10T12:24:02;3.75;;;1.88;;
70102;SDS011;57470;50.034;15.256;2023-06-10T12:26:41;4.85;;;1.88;;
70102;SDS011;57470;50.034;15.256;2023-06-10T12:29:22;3.85;;;1.55;;
70102;SDS011;57470;50.034;15.256;2023-06-10T12:31:54;3.40;;;1.20;;
70102;SDS011;57470;50.034;15.256;2023-06-10T12:34:27;3.67;;;1.00;;
70102;SDS011;57470;50.034;15.256;2023-06-10T12:37:01;5.43;;;2.53;;
70102;SDS011;57470;50.034;15.256;2023-06-10T12:39:29;4.03;;;1.55;;
70102;SDS011;57470;50.034;15.256;2023-06-10T12:41:55;5.15;;;2.15;;
70102;SDS011;57470;50.034;15.256;2023-06-10T12:44:30;4.07;;;1.33;;
70102;SDS011;57470;50.034;15.256;2023-06-10T12:46:59;4.00;;;1.33;;
70102;SDS011;57470;50.034;15.256;2023-06-10T12:49:25;4.55;;;1.58;;
70102;SDS011;57470;50.034;15.256;2023-06-10T12:51:51;6.37;;;1.87;;
70102;SDS011;57470;50.034;15.256;2023-06-10T12:54:17;5.05;;;1.90;;
70102;SDS011;57470;50.034;15.256;2023-06-10T12:56:42;4.77;;;1.83;;
70102;SDS011;57470;50.034;15.256;2023-06-10T12:59:08;5.72;;;1.63;;
70102;SDS011;57470;50.034;15.256;2023-06-10T13:01:33;4.33;;;1.43;;
70102;SDS011;57470;50.034;15.256;2023-06-10T13:03:59;3.97;;;1.10;;
70102;SDS011;57470;50.034;15.256;2023-06-10T13:06:24;3.88;;;1.52;;
70102;SDS011;57470;50.034;15.256;2023-06-10T13:08:50;9.20;;;1.67;;
70102;SDS011;57470;50.034;15.256;2023-06-10T13:11:16;3.28;;;1.20;;
70102;SDS011;57470;50.034;15.256;2023-06-10T13:13:41;3.90;;;1.53;;
70102;SDS011;57470;50.034;15.256;2023-06-10T13:16:07;3.55;;;1.50;;
70102;SDS011;57470;50.034;15.256;2023-06-10T13:18:33;9.90;;;3.17;;
70102;SDS011;57470;50.034;15.256;2023-06-10T13:21:02;3.92;;;1.20;;
70102;SDS011;57470;50.034;15.256;2023-06-10T13:23:28;4.75;;;2.10;;
70102;SDS011;57470;50.034;15.256;2023-06-10T13:25:54;3.63;;;1.15;;
70102;SDS011;57470;50.034;15.256;2023-06-10T13:28:20;4.50;;;2.00;;
70102;SDS011;57470;50.034;15.256;2023-06-10T13:30:46;4.60;;;1.83;;
70102;SDS011;57470;50.034;15.256;2023-06-10T13:33:11;8.37;;;1.97;;
70102;SDS011;57470;50.034;15.256;2023-06-10T13:35:37;4.27;;;1.77;;
70102;SDS011;57470;50.034;15.256;2023-06-10T13:38:03;3.88;;;1.48;;
70102;SDS011;57470;50.034;15.256;2023-06-10T13:40:28;3.60;;;1.40;;
70102;SDS011;57470;50.034;15.256;2023-06-10T13:42:53;5.20;;;2.50;;
70102;SDS011;57470;50.034;15.256;2023-06-10T13:45:19;6.78;;;2.70;;
70102;SDS011;57470;50.034;15.256;2023-06-10T13:47:45;4.77;;;2.00;;
70102;SDS011;57470;50.034;15.256;2023-06-10T13:50:10;3.80;;;1.63;;
70102;SDS011;57470;50.034;15.256;2023-06-10T13:52:36;5.00;;;2.07;;
70102;SDS011;57470;50.034;15.256;2023-06-10T13:55:01;4.67;;;1.83;;
70102;SDS011;57470;50.034;15.256;2023-06-10T13:57:27;4.00;;;1.47;;
70102;SDS011;57470;50.034;15.256;2023-06-10T13:59:52;9.60;;;2.70;;
70102;SDS011;57470;50.034;15.256;2023-06-10T14:02:17;4.68;;;0.98;;
70102;SDS011;57470;50.034;15.256;2023-06-10T14:04:43;5.13;;;1.80;;
70102;SDS011;57470;50.034;15.256;2023-06-10T14:07:08;4.43;;;1.90;;
70102;SDS011;57470;50.034;15.256;2023-06-10T14:09:33;5.20;;;2.63;;
70102;SDS011;57470;50.034;15.256;2023-06-10T14:11:59;3.67;;;1.20;;
70102;SDS011;57470;50.034;15.256;2023-06-10T14:14:24;3.13;;;0.77;;
70102;SDS011;57470;50.034;15.256;2023-06-10T14:16:50;4.47;;;1.98;;
70102;SDS011;57470;50.034;15.256;2023-06-10T14:19:15;4.20;;;1.83;;
70102;SDS011;57470;50.034;15.256;2023-06-10T14:21:40;2.77;;;0.97;;
70102;SDS011;57470;50.034;15.256;2023-06-10T14:24:06;3.10;;;1.27;;
70102;SDS011;57470;50.034;15.256;2023-06-10T14:26:31;4.17;;;1.43;;
70102;SDS011;57470;50.034;15.256;2023-06-10T14:28:57;3.88;;;1.40;;
70102;SDS011;57470;50.034;15.256;2023-06-10T14:31:23;5.27;;;2.43;;
70102;SDS011;57470;50.034;15.256;2023-06-10T14:33:48;4.93;;;2.17;;
70102;SDS011;57470;50.034;15.256;2023-06-10T14:36:14;6.30;;;2.70;;
70102;SDS011;57470;50.034;15.256;2023-06-10T14:38:39;5.47;;;1.97;;
70102;SDS011;57470;50.034;15.256;2023-06-10T14:41:05;4.50;;;1.40;;
70102;SDS011;57470;50.034;15.256;2023-06-10T14:43:30;5.03;;;2.33;;
70102;SDS011;57470;50.034;15.256;2023-06-10T14:45:55;4.17;;;1.87;;
70102;SDS011;57470;50.034;15.256;2023-06-10T14:48:22;5.07;;;1.63;;
70102;SDS011;57470;50.034;15.256;2023-06-10T14:50:47;2.90;;;0.90;;